Time;durP1;ratioP1;P1;durP2;ratioP2;P2;SDS_P1;SDS_P2;PMS_P1;PMS_P2;Temp;Humidity;BMP_temperature;BMP_pressure;BME280_temperature;BME280_humidity;BME280_pressure;Samples;Min_cycle;Max_cycle;Signal;HPM_P1;HPM_P2
2023/06/22 00:00:57;;;;;;;2.70;2.50;;;;;;;20.52;100.00;98647.22;15259698;19;20006;-42
2023/06/22 00:06:25;;;;;;;2.60;2.40;;;;;;;20.48;100.00;98643.28;15268283;19;20019;-45
2023/06/22 00:11:50;;;;;;;2.90;2.30;;;;;;;20.44;100.00;98651.09;15270190;19;20025;-41
2023/06/22 00:17:16;;;;;;;2.53;2.30;;;;;;;20.42;100.00;98652.34;15269340;19;20021;-42
2023/06/22 00:22:43;;;;;;;2.75;2.45;;;;;;;20.31;100.00;98649.25;15269968;19;20304;-41
2023/06/22 00:28:09;;;;;;;2.70;2.40;;;;;;;20.27;100.00;98656.25;15271012;19;20626;-43
2023/06/22 00:33:33;;;;;;;2.33;2.10;;;;;;;20.21;100.00;98653.53;15256878;19;20022;-40
2023/06/22 00:39:00;;;;;;;2.40;2.20;;;;;;;20.15;100.00;98660.72;15269819;19;20010;-40
2023/06/22 00:44:32;;;;;;;2.80;2.60;;;;;;;20.04;100.00;98664.13;15264836;19;20022;-42
2023/06/22 00:49:57;;;;;;;2.58;2.38;;;;;;;19.98;100.00;98663.94;15268129;19;20538;-41
2023/06/22 00:55:25;;;;;;;2.72;2.50;;;;;;;19.94;100.00;98662.69;15269653;19;20383;-41
2023/06/22 01:00:51;;;;;;;2.80;2.60;;;;;;;19.91;100.00;98638.53;15266356;19;20025;-41
2023/06/22 01:06:19;;;;;;;2.75;2.55;;;;;;;19.85;100.00;98636.59;15256448;19;20018;-41
2023/06/22 01:11:50;;;;;;;2.40;2.20;;;;;;;19.83;100.00;98616.84;15266361;19;20016;-41
2023/06/22 01:17:17;;;;;;;2.60;2.38;;;;;;;19.82;100.00;98628.84;15268140;19;20025;-43
2023/06/22 01:22:55;;;;;;;3.55;2.50;;;;;;;19.78;100.00;98635.81;15266263;19;20345;-42
2023/06/22 01:28:33;;;;;;;3.72;2.20;;;;;;;19.70;100.00;98634.97;15266655;19;20077;-41
2023/06/22 01:34:03;;;;;;;2.95;2.47;;;;;;;19.68;100.00;98633.50;15266087;19;20069;-41
2023/06/22 01:39:30;;;;;;;2.60;2.30;;;;;;;19.62;100.00;98637.94;15255964;19;20018;-74
2023/06/22 01:44:56;;;;;;;3.50;2.47;;;;;;;19.55;100.00;98646.16;15277062;19;20006;-73
2023/06/22 01:50:24;;;;;;;3.00;2.40;;;;;;;19.43;100.00;98649.78;15284264;19;20025;-75
2023/06/22 01:55:49;;;;;;;3.75;2.88;;;;;;;19.22;100.00;98644.34;15285193;19;20353;-74
2023/06/22 02:01:19;;;;;;;3.78;3.13;;;;;;;19.11;100.00;98644.16;15297413;19;20034;-75
2023/06/22 02:06:49;;;;;;;5.75;3.20;;;;;;;19.00;100.00;98616.41;15294908;19;20102;-76
2023/06/22 02:12:18;;;;;;;3.90;2.90;;;;;;;18.96;100.00;98625.25;15288539;19;20457;-75
2023/06/22 02:17:46;;;;;;;3.65;3.20;;;;;;;18.92;100.00;98627.53;15285086;19;20018;-76
2023/06/22 02:23:14;;;;;;;4.15;3.08;;;;;;;18.90;100.00;98613.25;15284456;19;20421;-75
2023/06/22 02:28:39;;;;;;;4.68;3.20;;;;;;;18.84;100.00;98617.66;15275722;19;20035;-75
2023/06/22 02:34:05;;;;;;;3.60;3.20;;;;;;;18.78;100.00;98616.59;15279640;19;20018;-76
2023/06/22 02:39:32;;;;;;;4.10;3.15;;;;;;;18.73;100.00;98624.59;15273034;19;20042;-76
2023/06/22 02:45:04;;;;;;;4.80;3.20;;;;;;;18.69;100.00;98633.41;15276354;19;20014;-75
2023/06/22 02:50:29;;;;;;;5.28;3.20;;;;;;;18.63;100.00;98616.81;15274394;19;20090;-75
2023/06/22 02:55:57;;;;;;;5.00;3.25;;;;;;;18.59;100.00;98625.63;15279520;19;20740;-75
2023/06/22 03:01:24;;;;;;;5.65;3.22;;;;;;;18.57;100.00;98625.00;15298589;19;20411;-79
2023/06/22 03:06:51;;;;;;;5.57;3.15;;;;;;;18.57;100.00;98633.19;15319612;19;20027;-78
2023/06/22 03:12:27;;;;;;;3.58;3.20;;;;;;;18.58;100.00;98643.06;15309096;19;20003;-78
2023/06/22 03:17:52;;;;;;;7.30;3.45;;;;;;;18.57;100.00;98668.66;15299344;19;20006;-78
2023/06/22 03:23:17;;;;;;;5.07;3.70;;;;;;;18.50;100.00;98681.44;15302015;19;20014;-78
2023/06/22 03:28:44;;;;;;;7.07;3.90;;;;;;;18.33;100.00;98701.78;15306065;19;20038;-79
2023/06/22 03:34:09;;;;;;;4.78;4.38;;;;;;;18.21;100.00;98735.28;15300217;19;20018;-79
2023/06/22 03:39:36;;;;;;;7.00;4.30;;;;;;;18.03;100.00;98783.03;15308327;19;20030;-78
2023/06/22 03:45:10;;;;;;;5.22;4.72;;;;;;;17.99;100.00;98809.00;15304169;19;20018;-79
2023/06/22 03:50:35;;;;;;;6.97;4.88;;;;;;;17.94;100.00;98849.59;15305388;19;20017;-79
2023/06/22 03:56:01;;;;;;;5.13;3.85;;;;;;;17.96;100.00;98864.72;15298803;19;20485;-79
2023/06/22 04:01:28;;;;;;;3.70;3.20;;;;;;;18.05;100.00;98857.25;15307104;19;20010;-79
2023/06/22 04:06:53;;;;;;;6.07;3.50;;;;;;;18.18;100.00;98846.44;15301508;19;20023;-78
2023/06/22 04:12:18;;;;;;;5.15;3.00;;;;;;;18.34;100.00;98828.06;15296528;19;20046;-78
2023/06/22 04:17:45;;;;;;;5.05;3.53;;;;;;;18.48;100.00;98805.28;15297956;19;20478;-78
2023/06/22 04:23:10;;;;;;;6.05;3.33;;;;;;;18.66;100.00;98792.94;15316253;19;20018;-80
2023/06/22 04:28:36;;;;;;;5.07;3.40;;;;;;;18.80;100.00;98769.28;15298861;19;20011;-77
2023/06/22 04:34:06;;;;;;;4.10;3.30;;;;;;;18.98;100.00;98735.94;15292043;19;20023;-78
2023/06/22 04:39:31;;;;;;;5.60;3.80;;;;;;;19.04;100.00;98702.34;15291077;19;20019;-78
2023/06/22 04:45:02;;;;;;;4.30;3.45;;;;;;;19.20;100.00;98695.59;15289410;19;20093;-79
2023/06/22 04:50:29;;;;;;;7.10;4.00;;;;;;;19.34;100.00;98676.47;15291248;19;20073;-79
2023/06/22 04:55:54;;;;;;;4.70;3.97;;;;;;;19.45;100.00;98672.28;15295832;19;20016;-78
2023/06/22 05:01:19;;;;;;;5.28;3.78;;;;;;;19.58;100.00;98653.09;15302009;19;20010;-78
2023/06/22 05:06:46;;;;;;;4.47;4.00;;;;;;;19.69;100.00;98646.13;15323172;19;20101;-81
2023/06/22 05:12:12;;;;;;;3.92;3.63;;;;;;;19.80;100.00;98618.13;15330271;19;20010;-82
2023/06/22 05:17:41;;;;;;;6.55;3.90;;;;;;;19.96;100.00;98591.38;15335132;19;20014;-79
2023/06/22 05:23:08;;;;;;;5.20;4.07;;;;;;;20.14;100.00;98575.06;15288424;19;20088;-77
2023/06/22 05:28:34;;;;;;;6.45;3.95;;;;;;;20.23;100.00;98578.38;15291641;19;20011;-80
2023/06/22 05:33:59;;;;;;;4.75;3.83;;;;;;;20.28;100.00;98584.06;15329829;19;20059;-79
2023/06/22 05:39:28;;;;;;;5.60;3.60;;;;;;;20.34;100.00;98585.06;15351550;19;20014;-80
2023/06/22 05:44:59;;;;;;;4.38;3.90;;;;;;;20.47;100.00;98606.84;15278844;19;20033;-79
2023/06/22 05:50:24;;;;;;;4.85;4.05;;;;;;;20.63;100.00;98610.97;15343093;19;20018;-80
2023/06/22 05:55:52;;;;;;;4.63;3.65;;;;;;;20.87;100.00;98624.91;15338284;19;20021;-80
2023/06/22 06:01:18;;;;;;;5.63;3.50;;;;;;;21.12;100.00;98618.56;15301703;19;20101;-79
2023/06/22 06:06:42;;;;;;;3.70;3.20;;;;;;;21.38;100.00;98619.38;15283006;19;20015;-80
2023/06/22 06:12:11;;;;;;;3.38;3.08;;;;;;;21.65;100.00;98616.38;15278396;19;20039;-80
2023/06/22 06:17:35;;;;;;;3.85;3.35;;;;;;;21.85;100.00;98616.13;15283397;19;20014;-80
2023/06/22 06:23:00;;;;;;;4.88;3.22;;;;;;;22.06;100.00;98612.03;15277370;19;21049;-81
2023/06/22 06:28:27;;;;;;;3.25;2.92;;;;;;;22.23;100.00;98603.16;15273642;19;20019;-80
2023/06/22 06:33:53;;;;;;;5.88;2.90;;;;;;;22.47;100.00;98607.69;15294990;19;20025;-81
2023/06/22 06:39:20;;;;;;;4.22;2.60;;;;;;;22.72;100.00;98611.31;15324206;19;20347;-77
2023/06/22 06:45:01;;;;;;;3.50;2.20;;;;;;;22.94;100.00;98608.84;15345334;19;20015;-80
2023/06/22 06:50:31;;;;;;;2.75;2.33;;;;;;;23.08;100.00;98588.31;15349301;19;20144;-81
2023/06/22 06:56:02;;;;;;;6.45;2.25;;;;;;;23.29;100.00;98594.31;15350870;19;20022;-80
2023/06/22 07:01:33;;;;;;;3.00;2.13;;;;;;;23.55;100.00;98567.38;15308834;19;20797;-80
2023/06/22 07:06:57;;;;;;;4.95;1.70;;;;;;;23.77;100.00;98566.72;15298358;19;20022;-81
2023/06/22 07:12:22;;;;;;;1.60;1.50;;;;;;;23.92;100.00;98564.28;15318938;19;20014;-79
2023/06/22 07:17:49;;;;;;;2.17;1.70;;;;;;;24.10;100.00;98565.19;15296017;19;20010;-79
2023/06/22 07:23:14;;;;;;;2.17;1.98;;;;;;;24.35;100.00;98561.22;15326320;19;20026;-80
2023/06/22 07:28:40;;;;;;;2.58;2.08;;;;;;;24.58;100.00;98550.06;15304365;19;20006;-81
2023/06/22 07:34:08;;;;;;;5.53;1.98;;;;;;;24.79;100.00;98558.69;15304343;19;20019;-79
2023/06/22 07:39:32;;;;;;;4.15;2.00;;;;;;;24.94;100.00;98552.56;15295002;19;20015;-80
2023/06/22 07:45:03;;;;;;;4.15;1.80;;;;;;;25.05;100.00;98534.28;15293721;19;20345;-79
2023/06/22 07:50:31;;;;;;;2.13;1.90;;;;;;;25.18;100.00;98525.66;15290849;19;20021;-80
2023/06/22 07:55:59;;;;;;;1.77;1.60;;;;;;;25.29;100.00;98517.50;15315567;19;20039;-80
2023/06/22 08:01:33;;;;;;;3.78;1.90;;;;;;;25.41;100.00;98521.00;15353056;19;20018;-80
2023/06/22 08:07:03;;;;;;;2.20;1.50;;;;;;;25.51;100.00;98515.63;15366811;19;20015;-81
2023/06/22 08:12:33;;;;;;;2.28;1.70;;;;;;;25.66;100.00;98505.84;15357783;19;20039;-81
2023/06/22 08:17:52;;;;;;;;;;;;;;;25.79;100.00;98510.13;15321925;19;20015;-81
2023/06/22 08:23:20;;;;;;;2.60;1.40;;;;;;;25.97;100.00;98500.66;15310416;19;20258;-84
2023/06/22 08:28:44;;;;;;;2.70;1.30;;;;;;;26.19;100.00;98503.41;15290452;19;20018;-82
2023/06/22 08:34:09;;;;;;;3.45;1.40;;;;;;;26.36;100.00;98503.28;15293761;19;20014;-81
2023/06/22 08:39:38;;;;;;;2.80;1.58;;;;;;;26.56;100.00;98493.47;15296910;19;20018;-81
2023/06/22 08:45:12;;;;;;;2.45;1.50;;;;;;;26.69;100.00;98495.78;15300389;19;20014;-81
2023/06/22 08:50:43;;;;;;;2.72;1.40;;;;;;;26.83;100.00;98496.19;15261391;19;20468;-48
2023/06/22 08:56:11;;;;;;;2.97;1.30;;;;;;;27.00;100.00;98484.94;15276056;19;20025;-50
2023/06/22 09:01:36;;;;;;;2.60;1.30;;;;;;;27.18;100.00;98469.00;15269104;19;20010;-47
2023/06/22 09:07:01;;;;;;;1.73;1.40;;;;;;;27.29;100.00;98470.72;15272404;19;20011;-49
2023/06/22 09:12:30;;;;;;;2.15;1.40;;;;;;;27.43;100.00;98468.28;15266824;19;20411;-50
2023/06/22 09:17:56;;;;;;;2.60;1.55;;;;;;;27.53;100.00;98460.03;15279485;19;20033;-52
2023/06/22 09:23:21;;;;;;;1.40;1.20;;;;;;;27.70;100.00;98470.06;15265905;19;20029;-51
2023/06/22 09:28:49;;;;;;;4.47;1.50;;;;;;;27.79;100.00;98462.06;15266603;19;20020;-48
2023/06/22 09:34:13;;;;;;;2.95;1.40;;;;;;;27.78;100.00;98450.13;15272884;19;20030;-49
2023/06/22 09:39:38;;;;;;;1.48;1.38;;;;;;;27.81;100.00;98446.81;15265129;19;20010;-48
2023/06/22 09:45:06;;;;;;;1.95;1.33;;;;;;;27.93;100.00;98452.09;15273142;19;20029;-49
2023/06/22 09:50:37;;;;;;;2.25;1.30;;;;;;;28.12;100.00;98444.09;15263527;19;20024;-52
2023/06/22 09:56:02;;;;;;;2.10;1.40;;;;;;;28.24;100.00;98434.69;15274707;19;20021;-49
2023/06/22 10:01:23;;;;;;;2.05;1.27;;;;;;;28.32;100.00;98423.06;15265846;19;20015;-50
2023/06/22 10:06:48;;;;;;;4.20;1.20;;;;;;;28.47;100.00;98427.75;15271407;19;20014;-50
2023/06/22 10:12:13;;;;;;;2.75;1.30;;;;;;;28.59;100.00;98430.22;15262580;19;20018;-48
2023/06/22 10:17:40;;;;;;;3.60;1.50;;;;;;;28.64;100.00;98415.53;15274409;19;20019;-50
2023/06/22 10:23:05;;;;;;;3.10;1.20;;;;;;;28.68;100.00;98414.72;15263718;19;20113;-49
2023/06/22 10:28:30;;;;;;;2.60;1.40;;;;;;;28.92;100.00;98405.78;15260713;19;20019;-51
2023/06/22 10:33:58;;;;;;;4.50;1.60;;;;;;;29.05;100.00;98398.81;15265178;19;20487;-51
2023/06/22 10:39:23;;;;;;;4.15;1.48;;;;;;;29.13;100.00;98397.38;15261246;19;20014;-50
2023/06/22 10:44:48;;;;;;;3.28;1.40;;;;;;;29.19;100.00;98394.31;15263328;19;20014;-50
2023/06/22 10:50:23;;;;;;;3.83;1.42;;;;;;;29.33;100.00;98388.97;15259555;19;20800;-47
2023/06/22 10:55:48;;;;;;;2.75;1.20;;;;;;;29.54;100.00;98379.72;15264582;19;20027;-52
2023/06/22 11:01:14;;;;;;;4.38;1.50;;;;;;;29.51;100.00;98381.94;15260662;19;20015;-53
2023/06/22 11:06:56;;;;;;;1.70;1.35;;;;;;;29.45;98.83;98374.78;15267848;19;20013;-51
2023/06/22 11:12:20;;;;;;;2.50;1.42;;;;;;;29.45;100.00;98374.78;15266824;19;20010;-50
2023/06/22 11:17:45;;;;;;;4.03;1.70;;;;;;;29.60;100.00;98364.66;15265611;19;20019;-48
2023/06/22 11:23:12;;;;;;;2.38;1.50;;;;;;;29.91;100.00;98356.13;15281012;19;20085;-50
2023/06/22 11:28:37;;;;;;;3.30;1.40;;;;;;;30.34;100.00;98350.75;15279241;19;20093;-46
2023/06/22 11:34:01;;;;;;;3.92;1.50;;;;;;;30.47;97.95;98348.38;15275447;19;20022;-46
2023/06/22 11:39:29;;;;;;;2.10;1.38;;;;;;;30.57;90.90;98348.31;15281292;19;20035;-47
2023/06/22 11:45:01;;;;;;;2.30;1.48;;;;;;;30.57;97.95;98343.59;15283392;19;20025;-47
2023/06/22 11:50:35;;;;;;;2.20;1.30;;;;;;;30.79;93.89;98331.09;15270645;19;20082;-47
2023/06/22 11:56:03;;;;;;;3.03;1.40;;;;;;;30.96;90.11;98322.25;15275312;19;20023;-48
2023/06/22 12:01:27;;;;;;;1.88;1.30;;;;;;;31.13;91.51;98315.38;15279060;19;20011;-49
2023/06/22 12:06:52;;;;;;;3.47;1.40;;;;;;;31.30;82.20;98310.13;15278418;19;20020;-46
2023/06/22 12:12:20;;;;;;;4.72;1.20;;;;;;;31.44;85.01;98292.66;15274083;19;20018;-52
2023/06/22 12:17:44;;;;;;;3.17;1.20;;;;;;;31.45;81.98;98291.53;15279938;19;20014;-48
2023/06/22 12:23:08;;;;;;;4.43;1.15;;;;;;;31.47;83.86;98280.88;15272640;19;20007;-53
2023/06/22 12:28:37;;;;;;;3.55;1.40;;;;;;;31.71;82.68;98271.63;15276798;19;20026;-51
2023/06/22 12:34:01;;;;;;;6.75;1.33;;;;;;;32.04;79.52;98257.69;15269911;19;20021;-52
2023/06/22 12:39:26;;;;;;;5.97;1.20;;;;;;;32.22;76.76;98251.19;15269590;19;20018;-51
2023/06/22 12:44:54;;;;;;;10.05;1.48;;;;;;;32.48;74.20;98247.91;15275867;19;20015;-52
2023/06/22 12:50:18;;;;;;;2.83;1.20;;;;;;;32.48;69.41;98242.34;15266332;19;20435;-51
2023/06/22 12:55:43;;;;;;;2.65;1.30;;;;;;;32.70;68.98;98229.59;15271480;19;20045;-52
2023/06/22 13:01:11;;;;;;;2.50;1.20;;;;;;;32.83;60.97;98230.72;15267926;19;20404;-51
2023/06/22 13:06:37;;;;;;;2.10;1.17;;;;;;;32.93;62.95;98218.53;15272770;19;20033;-50
2023/06/22 13:12:02;;;;;;;1.75;1.20;;;;;;;32.92;61.20;98222.44;15272638;19;20540;-49
2023/06/22 13:17:30;;;;;;;1.20;1.10;;;;;;;32.75;62.51;98212.78;15278430;19;20018;-50
2023/06/22 13:22:56;;;;;;;5.45;1.20;;;;;;;32.56;61.76;98212.91;15265411;19;20031;-53
2023/06/22 13:28:21;;;;;;;2.63;1.23;;;;;;;32.60;62.53;98193.56;15268120;19;20026;-50
2023/06/22 13:33:52;;;;;;;2.97;1.45;;;;;;;32.41;61.49;98191.72;15263116;19;20118;-51
2023/06/22 13:39:16;;;;;;;2.63;1.30;;;;;;;32.51;64.40;98199.06;15264478;19;20025;-49
2023/06/22 13:44:40;;;;;;;2.42;1.30;;;;;;;32.74;62.72;98191.59;15260545;19;20047;-45
2023/06/22 13:50:08;;;;;;;1.75;1.20;;;;;;;32.71;61.39;98178.25;15260737;19;20010;-45
2023/06/22 13:55:32;;;;;;;2.83;1.30;;;;;;;32.49;61.19;98157.56;15270568;19;20082;-45
2023/06/22 14:00:57;;;;;;;2.13;1.20;;;;;;;32.28;63.86;98149.63;15268269;19;20355;-49
2023/06/22 14:06:24;;;;;;;4.32;1.40;;;;;;;32.43;61.70;98133.69;15268980;19;20370;-51
2023/06/22 14:11:49;;;;;;;3.15;1.25;;;;;;;32.88;61.04;98121.81;15271903;19;20013;-49
2023/06/22 14:17:14;;;;;;;4.28;1.50;;;;;;;33.36;59.68;98109.19;15271045;19;20018;-52
2023/06/22 14:22:42;;;;;;;3.80;1.20;;;;;;;33.34;58.29;98098.34;15271927;19;20028;-49
2023/06/22 14:28:07;;;;;;;2.92;1.40;;;;;;;33.01;58.42;98087.44;15270822;19;20018;-47
2023/06/22 14:33:32;;;;;;;5.20;1.30;;;;;;;32.87;59.79;98097.84;15269683;19;20010;-50
2023/06/22 14:39:00;;;;;;;2.92;1.20;;;;;;;32.85;58.80;98083.38;15263727;19;20025;-49
2023/06/22 14:44:25;;;;;;;3.75;1.40;;;;;;;32.69;60.48;98085.72;15264799;19;20803;-49
2023/06/22 14:49:50;;;;;;;7.47;1.40;;;;;;;32.77;59.92;98076.56;15259692;19;20078;-48
2023/06/22 14:55:18;;;;;;;3.33;1.33;;;;;;;32.93;59.72;98070.66;15272556;19;20475;-49
2023/06/22 15:00:42;;;;;;;2.45;1.10;;;;;;;33.00;59.89;98040.31;15278829;19;20018;-50
2023/06/22 15:06:08;;;;;;;3.92;1.20;;;;;;;33.05;59.96;98017.88;15270001;19;20030;-51
2023/06/22 15:11:35;;;;;;;3.03;1.20;;;;;;;32.94;59.55;98019.28;15266741;19;20396;-53
2023/06/22 15:17:00;;;;;;;2.25;1.27;;;;;;;33.34;60.67;98014.59;15266895;19;20014;-51
2023/06/22 15:22:25;;;;;;;4.68;1.20;;;;;;;33.87;58.76;98005.53;15270517;19;20057;-51
2023/06/22 15:27:52;;;;;;;5.15;1.30;;;;;;;34.05;57.11;97998.84;14733713;19;10000793;-51
2023/06/22 15:33:16;;;;;;;3.40;1.35;;;;;;;34.33;55.72;97992.94;15264020;19;20018;-51
2023/06/22 15:38:42;;;;;;;8.27;1.38;;;;;;;34.57;55.40;97977.63;15270118;19;20014;-51
2023/06/22 15:44:09;;;;;;;2.28;1.17;;;;;;;34.70;53.08;97976.63;15270535;19;20362;-51
2023/06/22 15:49:35;;;;;;;1.77;1.02;;;;;;;34.35;54.39;97985.03;15261981;19;20025;-49
2023/06/22 15:55:00;;;;;;;4.70;1.30;;;;;;;33.82;55.08;97970.19;15270598;19;20006;-48
2023/06/22 16:00:31;;;;;;;4.18;1.38;;;;;;;33.57;57.01;97953.06;15269480;19;20521;-52
2023/06/22 16:05:56;;;;;;;5.32;1.40;;;;;;;33.21;57.93;97950.47;15259844;19;20019;-49
2023/06/22 16:11:21;;;;;;;4.57;1.38;;;;;;;32.83;60.06;97935.03;15268407;19;20021;-48
2023/06/22 16:16:49;;;;;;;2.45;1.40;;;;;;;32.37;62.94;97928.69;15266359;19;20014;-48
2023/06/22 16:22:14;;;;;;;4.53;1.40;;;;;;;32.09;65.92;97929.59;15268236;19;20683;-49
2023/06/22 16:27:39;;;;;;;3.10;1.55;;;;;;;31.80;68.83;97928.03;15266450;19;20011;-47
2023/06/22 16:33:07;;;;;;;4.35;1.50;;;;;;;31.72;70.75;97914.03;15271739;19;20022;-46
2023/06/22 16:38:33;;;;;;;3.30;1.50;;;;;;;31.58;73.80;97898.16;15260793;19;20611;-47
2023/06/22 16:44:02;;;;;;;3.60;1.45;;;;;;;31.53;76.33;97895.50;15268060;19;20484;-50
2023/06/22 16:49:30;;;;;;;2.92;1.40;;;;;;;31.56;80.95;97880.13;15264478;19;20020;-47
2023/06/22 16:54:56;;;;;;;4.78;1.38;;;;;;;31.57;79.89;97854.75;15261182;19;20908;-47
2023/06/22 17:00:25;;;;;;;7.60;1.50;;;;;;;31.58;80.62;97850.00;15265531;19;20011;-47
2023/06/22 17:05:53;;;;;;;2.50;1.40;;;;;;;31.43;82.41;97835.31;15264604;19;20025;-48
2023/06/22 17:11:19;;;;;;;1.95;1.40;;;;;;;31.20;83.70;97828.88;15258143;19;20622;-49
2023/06/22 17:16:47;;;;;;;4.80;1.50;;;;;;;31.05;87.75;97813.28;15258531;19;20019;-47
2023/06/22 17:22:08;;;;;;;4.65;1.80;;;;;;;30.95;88.31;97791.25;15264558;19;20368;-51
2023/06/22 17:27:36;;;;;;;4.57;1.90;;;;;;;30.83;90.19;97783.47;15258209;19;20096;-49
2023/06/22 17:33:00;;;;;;;3.45;1.55;;;;;;;30.72;91.08;97793.97;15265090;19;20029;-51
2023/06/22 17:38:28;;;;;;;3.70;1.60;;;;;;;30.59;94.04;97792.84;15261168;19;20021;-48
2023/06/22 17:43:56;;;;;;;4.00;1.65;;;;;;;30.46;94.34;97788.06;15254041;19;20086;-46
2023/06/22 17:49:28;;;;;;;2.22;1.50;;;;;;;30.29;96.81;97768.09;15258227;19;20018;-47
2023/06/22 17:55:02;;;;;;;3.55;1.65;;;;;;;30.16;99.38;97756.97;15261207;19;20481;-48
2023/06/22 18:00:29;;;;;;;6.95;1.58;;;;;;;29.98;100.00;97760.34;15251544;19;20017;-46
2023/06/22 18:05:56;;;;;;;5.03;1.50;;;;;;;29.87;100.00;97750.50;15259658;19;20094;-48
2023/06/22 18:11:26;;;;;;;3.47;1.60;;;;;;;29.75;100.00;97764.88;15256369;19;20078;-49
2023/06/22 18:16:56;;;;;;;2.78;1.70;;;;;;;29.62;100.00;97773.97;15249839;19;20018;-47
2023/06/22 18:22:22;;;;;;;3.42;1.48;;;;;;;29.46;100.00;97790.84;15263103;19;20010;-48
2023/06/22 18:27:51;;;;;;;3.35;1.70;;;;;;;29.30;100.00;97792.19;15259453;19;20628;-44
2023/06/22 18:33:15;;;;;;;2.58;1.40;;;;;;;29.11;100.00;97778.31;15270102;19;20019;-46
2023/06/22 18:38:40;;;;;;;2.95;1.60;;;;;;;28.97;100.00;97775.47;15268143;19;20014;-47
2023/06/22 18:44:21;;;;;;;4.45;1.73;;;;;;;28.83;100.00;97773.44;15272958;19;20443;-47
2023/06/22 18:50:13;;;;;;;3.10;1.63;;;;;;;28.73;100.00;97770.81;15264810;19;20011;-45
2023/06/22 18:55:39;;;;;;;5.82;1.67;;;;;;;28.59;100.00;97765.94;15271767;19;20014;-49
2023/06/22 19:01:24;;;;;;;6.00;1.70;;;;;;;28.49;100.00;97765.22;15280489;19;20022;-44
2023/06/22 19:06:58;;;;;;;3.03;1.73;;;;;;;28.36;100.00;97753.72;15268088;19;20022;-47
2023/06/22 19:12:29;;;;;;;4.78;1.80;;;;;;;28.23;100.00;97719.28;15276220;19;20015;-45
2023/06/22 19:17:56;;;;;;;3.40;1.67;;;;;;;28.12;100.00;97729.63;15274064;19;20022;-45
2023/06/22 19:23:37;;;;;;;3.08;1.75;;;;;;;27.96;100.00;97715.09;15268725;19;20778;-47
2023/06/22 19:29:03;;;;;;;3.53;1.90;;;;;;;27.85;100.00;97724.63;15273688;19;20040;-47
2023/06/22 19:34:31;;;;;;;3.60;1.92;;;;;;;27.74;100.00;97745.22;15276663;19;20014;-45
2023/06/22 19:39:56;;;;;;;6.18;1.95;;;;;;;27.66;100.00;97779.88;15264034;19;20017;-46
2023/06/22 19:45:30;;;;;;;2.00;1.60;;;;;;;27.57;100.00;97803.72;15273438;19;20018;-46
2023/06/22 19:50:58;;;;;;;2.67;1.70;;;;;;;27.45;100.00;97816.00;15265989;19;20007;-46
2023/06/22 19:56:28;;;;;;;4.72;1.80;;;;;;;27.39;100.00;97817.13;15269901;19;20014;-45
2023/06/22 20:01:46;;;;;;;2.08;1.50;;;;;;;27.26;100.00;97821.31;15279340;19;20470;-44
2023/06/22 20:07:14;;;;;;;2.90;1.65;;;;;;;27.26;100.00;97799.22;15270551;19;20108;-46
2023/06/22 20:12:42;;;;;;;3.97;1.92;;;;;;;27.17;100.00;97782.38;15270603;19;20022;-44
2023/06/22 20:18:08;;;;;;;3.10;1.60;;;;;;;27.07;100.00;97747.34;15274125;19;20029;-44
2023/06/22 20:23:37;;;;;;;7.20;1.77;;;;;;;27.02;100.00;97736.31;15267187;19;20018;-44
2023/06/22 20:29:02;;;;;;;5.07;1.70;;;;;;;26.74;100.00;97846.44;15273748;19;20090;-44
2023/06/22 20:34:29;;;;;;;4.80;1.80;;;;;;;26.25;100.00;97871.94;15273957;19;20035;-46
2023/06/22 20:39:56;;;;;;;4.45;1.60;;;;;;;26.00;100.00;97890.94;15273974;19;20093;-43
2023/06/22 20:45:21;;;;;;;6.13;1.70;;;;;;;25.71;100.00;97904.44;15266123;19;20044;-42
2023/06/22 20:50:46;;;;;;;4.88;1.70;;;;;;;25.43;100.00;97999.50;15267257;19;20838;-43
2023/06/22 20:56:13;;;;;;;15.57;2.00;;;;;;;25.16;100.00;97994.97;15269508;19;20351;-43
2023/06/22 21:01:38;;;;;;;8.73;2.67;;;;;;;24.59;100.00;98022.06;15272401;19;20018;-43
2023/06/22 21:07:02;;;;;;;12.70;3.20;;;;;;;24.34;100.00;98034.56;15272963;19;20054;-42
2023/06/22 21:12:33;;;;;;;6.63;2.45;;;;;;;23.75;100.00;98065.50;15271275;19;20267;-44
2023/06/22 21:17:57;;;;;;;5.45;2.22;;;;;;;23.04;100.00;98056.84;15270037;19;20489;-41
2023/06/22 21:23:22;;;;;;;4.03;1.73;;;;;;;22.74;100.00;98068.16;15274920;19;20017;-43
2023/06/22 21:28:49;;;;;;;5.57;2.03;;;;;;;22.53;100.00;98095.28;15262037;19;20018;-45
2023/06/22 21:34:14;;;;;;;6.72;2.40;;;;;;;22.27;100.00;98081.06;15262827;19;20363;-42
2023/06/22 21:39:38;;;;;;;6.13;2.38;;;;;;;22.16;100.00;98091.03;15275568;19;20336;-42
2023/06/22 21:45:06;;;;;;;5.75;2.42;;;;;;;22.07;100.00;98135.53;15273583;19;20026;-42
2023/06/22 21:50:30;;;;;;;5.05;2.55;;;;;;;21.96;100.00;98129.84;15267534;19;20017;-42
2023/06/22 21:55:55;;;;;;;8.40;2.28;;;;;;;21.86;100.00;98113.19;15270439;19;20031;-41
2023/06/22 22:01:22;;;;;;;11.07;2.15;;;;;;;21.64;100.00;98082.84;15266483;19;20018;-44
2023/06/22 22:06:50;;;;;;;4.97;2.10;;;;;;;21.48;100.00;98073.41;15266006;19;20025;-41
2023/06/22 22:12:16;;;;;;;6.13;2.15;;;;;;;21.30;100.00;98056.03;15268582;19;20022;-42
2023/06/22 22:17:44;;;;;;;5.97;2.05;;;;;;;21.11;100.00;98071.78;15265006;19;20026;-42
2023/06/22 22:23:09;;;;;;;6.32;1.92;;;;;;;21.04;100.00;98102.03;15270179;19;20017;-44
2023/06/22 22:28:35;;;;;;;3.75;1.90;;;;;;;21.00;100.00;98100.00;15269333;19;20026;-42
2023/06/22 22:34:02;;;;;;;8.10;2.20;;;;;;;20.86;100.00;98144.06;15263189;19;20018;-43
2023/06/22 22:39:37;;;;;;;6.03;2.10;;;;;;;20.76;100.00;98174.72;15270192;19;20029;-43
2023/06/22 22:45:06;;;;;;;5.05;2.10;;;;;;;20.74;100.00;98228.03;15270434;19;20040;-43
2023/06/22 23:15:31;;;;;;;5.60;2.92;;;;;;;20.02;100.00;98342.50;15333523;19;20069;-53
2023/06/22 23:20:55;;;;;;;7.97;3.10;;;;;;;19.97;100.00;98350.53;15337286;19;20967;-54
2023/06/22 23:26:21;;;;;;;7.63;2.70;;;;;;;19.97;100.00;98327.81;15337701;19;20033;-49
2023/06/22 23:31:48;;;;;;;4.45;2.55;;;;;;;20.01;100.00;98304.41;15331820;19;20014;-49
2023/06/22 23:37:14;;;;;;;4.50;2.40;;;;;;;20.02;100.00;98309.69;15328789;19;20090;-49
2023/06/22 23:42:39;;;;;;;4.90;2.78;;;;;;;20.09;100.00;98276.81;15330818;19;20082;-50
2023/06/22 23:48:08;;;;;;;6.03;2.55;;;;;;;20.12;100.00;98253.63;15329733;19;20014;-50
2023/06/22 23:53:35;;;;;;;4.45;2.53;;;;;;;20.18;100.00;98230.81;15331521;19;20017;-51
2023/06/22 23:59:01;;;;;;;6.15;2.28;;;;;;;20.19;100.00;98232.50;15329346;19;20082;-50
